Time;durP1;ratioP1;P1;durP2;ratioP2;P2;SDS_P1;SDS_P2;PMS_P1;PMS_P2;Temp;Humidity;BMP_temperature;BMP_pressure;BME280_temperature;BME280_humidity;BME280_pressure;Samples;Min_cycle;Max_cycle;Signal;HPM_P1;HPM_P2
2022/09/02 00:01:18;;;;;;;4.25;1.15;;;18.30;99.90;;;;;;4994951;28;20029;-65
2022/09/02 00:03:45;;;;;;;1.67;1.15;;;18.20;99.90;;;;;;5011137;28;20034;-65
2022/09/02 00:06:12;;;;;;;2.47;1.23;;;18.20;99.90;;;;;;5012135;28;20470;-65
2022/09/02 00:08:39;;;;;;;2.28;1.20;;;18.10;99.90;;;;;;5010869;28;20176;-65
2022/09/02 00:11:07;;;;;;;3.38;1.40;;;18.10;99.90;;;;;;5011889;28;20390;-65
2022/09/02 00:13:36;;;;;;;3.85;1.67;;;18.00;99.90;;;;;;5011662;28;20057;-65
2022/09/02 00:16:03;;;;;;;1.52;1.15;;;18.10;99.90;;;;;;5010773;28;20049;-65
2022/09/02 00:18:29;;;;;;;2.35;1.40;;;18.00;99.90;;;;;;5012159;28;20037;-65
2022/09/02 00:20:55;;;;;;;1.27;1.02;;;17.90;99.90;;;;;;5010529;28;20042;-65
2022/09/02 00:23:21;;;;;;;2.65;1.45;;;17.80;99.90;;;;;;5011890;28;20034;-65
2022/09/02 00:25:47;;;;;;;2.45;1.33;;;17.80;99.90;;;;;;4994344;28;20032;-65
2022/09/02 00:28:15;;;;;;;1.27;1.02;;;17.80;99.90;;;;;;5012176;28;20109;-65
2022/09/02 00:30:42;;;;;;;2.67;1.38;;;17.80;99.90;;;;;;5010709;28;20065;-65
2022/09/02 00:33:09;;;;;;;2.03;1.27;;;17.70;99.90;;;;;;4994469;28;20032;-65
2022/09/02 00:35:35;;;;;;;3.20;1.92;;;17.60;99.90;;;;;;5011477;28;20026;-64
2022/09/02 00:38:02;;;;;;;2.40;1.52;;;17.50;99.90;;;;;;5011800;28;20033;-65
2022/09/02 00:40:29;;;;;;;2.45;1.27;;;17.50;99.90;;;;;;5010262;28;20474;-65
2022/09/02 00:42:55;;;;;;;3.05;1.35;;;17.40;99.90;;;;;;4993850;28;20655;-65
2022/09/02 00:45:21;;;;;;;3.35;1.33;;;17.50;99.90;;;;;;5010497;28;20041;-65
2022/09/02 00:47:50;;;;;;;2.58;0.88;;;17.40;99.90;;;;;;5011594;28;20030;-65
2022/09/02 00:50:23;;;;;;;2.30;1.40;;;17.50;99.90;;;;;;5010387;28;20026;-64
2022/09/02 00:52:58;;;;;;;1.92;1.20;;;17.50;99.90;;;;;;5009968;28;20026;-64
2022/09/02 00:55:40;;;;;;;1.65;1.00;;;17.50;99.90;;;;;;5010299;28;20033;-64
2022/09/02 00:58:19;;;;;;;2.70;1.05;;;17.50;99.90;;;;;;5010133;28;20458;-64
2022/09/02 01:00:51;;;;;;;2.50;1.20;;;17.60;99.90;;;;;;5009956;28;20041;-64
2022/09/02 01:03:20;;;;;;;2.08;0.82;;;17.50;99.90;;;;;;5009899;28;20077;-64
2022/09/02 01:05:49;;;;;;;2.40;1.40;;;17.60;99.90;;;;;;5019480;28;20029;-64
2022/09/02 01:08:24;;;;;;;1.88;1.00;;;17.70;99.90;;;;;;5035836;28;20101;-64
2022/09/02 01:10:54;;;;;;;2.58;1.27;;;17.70;99.90;;;;;;5022110;28;20025;-64
2022/09/02 01:13:24;;;;;;;1.67;1.10;;;17.70;99.90;;;;;;5009633;28;20048;-64
2022/09/02 01:16:24;;;;;;;2.10;0.82;;;17.60;99.90;;;;;;5022231;28;20034;-64
2022/09/02 01:18:55;;;;;;;2.00;1.02;;;17.60;99.90;;;;;;5030546;28;20378;-64
2022/09/02 01:21:22;;;;;;;2.33;1.20;;;17.70;99.90;;;;;;5045950;28;20067;-64
2022/09/02 01:23:49;;;;;;;1.52;1.17;;;17.70;99.90;;;;;;5030398;28;20029;-64
2022/09/02 01:26:15;;;;;;;1.45;1.08;;;17.70;99.90;;;;;;5028994;28;20041;-64
2022/09/02 01:28:41;;;;;;;3.25;1.33;;;17.60;99.90;;;;;;5045433;28;20046;-64
2022/09/02 01:31:07;;;;;;;1.45;1.08;;;17.60;99.90;;;;;;5013208;28;20025;-64
2022/09/02 01:33:33;;;;;;;1.55;1.10;;;17.40;99.90;;;;;;5030384;28;20037;-64
2022/09/02 01:36:00;;;;;;;6.15;1.15;;;17.40;99.90;;;;;;5029225;28;20041;-64
2022/09/02 01:38:27;;;;;;;2.55;1.70;;;17.40;99.90;;;;;;5030530;28;20026;-64
2022/09/02 01:40:52;;;;;;;2.33;1.05;;;17.40;99.90;;;;;;5022418;28;20109;-64
2022/09/02 01:43:24;;;;;;;1.48;0.88;;;17.40;99.90;;;;;;5009300;28;20453;-64
2022/09/02 01:45:54;;;;;;;1.75;1.23;;;17.40;99.90;;;;;;5010879;28;20129;-64
2022/09/02 01:48:20;;;;;;;1.55;1.00;;;17.30;99.90;;;;;;5010602;28;20049;-64
2022/09/02 01:50:56;;;;;;;2.47;1.35;;;17.30;99.90;;;;;;5010561;28;20077;-64
2022/09/02 01:53:22;;;;;;;2.00;1.30;;;17.20;99.90;;;;;;5010273;28;20417;-65
2022/09/02 01:55:48;;;;;;;0.82;0.65;;;17.20;99.90;;;;;;5010704;28;20041;-65
2022/09/02 01:58:14;;;;;;;3.78;1.38;;;17.20;99.90;;;;;;5009243;28;20064;-64
2022/09/02 02:00:40;;;;;;;1.27;0.70;;;17.10;99.90;;;;;;5009152;28;20471;-64
2022/09/02 02:03:06;;;;;;;1.83;1.13;;;17.10;99.90;;;;;;5010450;28;20580;-64
2022/09/02 02:05:32;;;;;;;1.67;0.95;;;17.10;99.90;;;;;;5010705;28;20041;-65
2022/09/02 02:07:58;;;;;;;1.58;1.05;;;17.10;99.90;;;;;;5010639;28;20572;-65
2022/09/02 02:10:24;;;;;;;1.27;1.10;;;17.20;99.90;;;;;;5009245;28;20061;-64
2022/09/02 02:12:50;;;;;;;2.15;0.85;;;17.40;99.90;;;;;;5008984;28;20482;-65
2022/09/02 02:15:18;;;;;;;9.02;0.60;;;17.50;99.90;;;;;;5018935;28;20021;-65
2022/09/02 02:17:45;;;;;;;2.90;1.30;;;17.60;99.90;;;;;;5028966;28;20690;-64
2022/09/02 02:20:14;;;;;;;2.42;1.10;;;17.70;99.90;;;;;;5028777;28;20041;-64
2022/09/02 02:22:41;;;;;;;2.88;1.50;;;17.70;99.90;;;;;;5029825;28;20405;-65
2022/09/02 02:25:08;;;;;;;0.88;0.70;;;17.70;99.90;;;;;;5028946;28;20030;-64
2022/09/02 02:27:34;;;;;;;0.73;0.52;;;17.60;99.90;;;;;;5028975;28;20041;-65
2022/09/02 02:30:00;;;;;;;3.25;1.02;;;17.60;99.90;;;;;;5028708;28;20433;-65
2022/09/02 02:32:26;;;;;;;1.00;0.80;;;17.60;99.90;;;;;;5028594;28;20048;-65
2022/09/02 02:34:53;;;;;;;1.27;0.75;;;17.60;99.90;;;;;;5028901;28;20104;-64
2022/09/02 02:37:19;;;;;;;1.38;0.90;;;17.70;99.90;;;;;;5042407;23;20069;-72
2022/09/02 02:39:45;;;;;;;1.88;1.00;;;17.70;99.90;;;;;;5018668;28;20095;-72
2022/09/02 02:42:14;;;;;;;0.90;0.60;;;17.70;99.90;;;;;;5035499;28;20472;-72
2022/09/02 02:44:40;;;;;;;1.23;0.70;;;17.70;99.90;;;;;;5053272;28;20029;-72
2022/09/02 02:47:08;;;;;;;1.40;0.98;;;17.70;99.90;;;;;;5053386;28;20107;-72
2022/09/02 02:49:40;;;;;;;2.00;1.15;;;17.60;99.90;;;;;;5035235;28;20517;-71
2022/09/02 02:52:06;;;;;;;1.45;0.98;;;17.70;99.90;;;;;;5019015;28;20025;-72
2022/09/02 02:54:32;;;;;;;1.70;0.95;;;17.70;99.90;;;;;;5053226;28;20112;-72
2022/09/02 02:56:58;;;;;;;2.80;1.00;;;17.70;99.90;;;;;;5053616;28;20104;-72
2022/09/02 02:59:25;;;;;;;2.97;1.75;;;17.70;99.90;;;;;;5052907;28;20033;-72
2022/09/02 03:01:51;;;;;;;2.35;0.90;;;17.60;99.90;;;;;;5053083;28;20039;-72
2022/09/02 03:04:17;;;;;;;1.90;1.05;;;17.60;99.90;;;;;;5035157;28;20488;-72
2022/09/02 03:06:43;;;;;;;1.00;0.63;;;17.50;99.90;;;;;;5035328;28;20029;-72
2022/09/02 03:09:09;;;;;;;2.30;1.02;;;17.50;99.90;;;;;;5035000;28;20036;-72
2022/09/02 03:11:35;;;;;;;0.93;0.70;;;17.50;99.90;;;;;;5052851;28;20512;-72
2022/09/02 03:14:01;;;;;;;1.13;0.88;;;17.40;99.90;;;;;;5052687;28;20053;-71
2022/09/02 03:16:26;;;;;;;2.30;0.98;;;17.40;99.90;;;;;;5035123;28;20481;-71
2022/09/02 03:18:52;;;;;;;0.63;0.57;;;17.30;99.90;;;;;;5034864;28;20040;-72
2022/09/02 03:21:18;;;;;;;1.08;0.65;;;17.30;99.90;;;;;;5053089;28;20037;-72
2022/09/02 03:23:45;;;;;;;0.80;0.75;;;17.30;99.90;;;;;;5052396;28;20056;-72
2022/09/02 03:26:16;;;;;;;1.27;0.85;;;17.20;99.90;;;;;;5034982;28;20071;-72
2022/09/02 03:28:42;;;;;;;1.88;0.98;;;17.30;99.90;;;;;;5034745;28;20083;-72
2022/09/02 03:31:16;;;;;;;2.10;1.05;;;17.40;99.90;;;;;;5052740;28;20464;-72
2022/09/02 03:33:41;;;;;;;1.10;0.80;;;17.40;99.90;;;;;;5034638;28;20056;-72
2022/09/02 03:36:08;;;;;;;0.75;0.40;;;17.50;99.90;;;;;;5052303;28;20029;-72
2022/09/02 03:38:35;;;;;;;1.00;0.85;;;17.40;99.90;;;;;;5052364;28;20111;-72
2022/09/02 03:41:00;;;;;;;2.22;1.50;;;17.40;99.90;;;;;;5052489;28;20037;-71
2022/09/02 03:43:26;;;;;;;2.85;0.68;;;17.30;99.90;;;;;;5034176;28;20378;-72
2022/09/02 03:45:52;;;;;;;1.00;0.70;;;17.30;99.90;;;;;;5052332;28;20397;-72
2022/09/02 03:48:17;;;;;;;0.98;0.70;;;17.30;99.90;;;;;;5051327;28;20076;-72
2022/09/02 03:50:46;;;;;;;1.40;0.82;;;17.30;99.90;;;;;;5052135;28;20389;-72
2022/09/02 03:53:12;;;;;;;1.13;0.73;;;17.20;99.90;;;;;;5034562;28;20025;-72
2022/09/02 03:55:40;;;;;;;3.13;1.73;;;17.00;99.90;;;;;;5051964;28;20028;-72
2022/09/02 03:58:05;;;;;;;2.20;0.95;;;17.00;99.90;;;;;;5052257;28;20025;-71
2022/09/02 04:00:32;;;;;;;1.38;1.00;;;16.90;99.90;;;;;;5017609;28;20051;-72
2022/09/02 04:03:00;;;;;;;1.50;0.88;;;16.90;99.90;;;;;;5050621;28;20037;-72
2022/09/02 04:05:26;;;;;;;1.90;1.20;;;16.80;99.90;;;;;;5051961;28;20428;-72
2022/09/02 04:07:52;;;;;;;1.23;0.60;;;16.90;99.90;;;;;;5034126;28;20036;-71
2022/09/02 04:10:20;;;;;;;8.27;0.93;;;17.00;99.90;;;;;;5051603;28;20439;-74
2022/09/02 04:12:47;;;;;;;2.58;1.52;;;17.00;99.90;;;;;;5031225;28;20028;-71
2022/09/02 04:15:13;;;;;;;1.85;1.27;;;16.90;99.90;;;;;;5044506;28;20104;-71
2022/09/02 04:21:20;;;;;;;1.10;0.70;;;16.80;99.90;;;;;;5049105;28;20119;-71
2022/09/02 04:23:46;;;;;;;4.57;1.10;;;16.70;99.90;;;;;;5051166;28;20476;-71
2022/09/02 04:26:17;;;;;;;1.42;0.70;;;16.70;99.90;;;;;;5050055;28;20468;-75
2022/09/02 04:28:42;;;;;;;1.27;0.75;;;16.70;99.90;;;;;;5033330;28;20064;-72
2022/09/02 04:31:13;;;;;;;1.55;1.27;;;16.60;99.90;;;;;;5049723;28;20060;-75
2022/09/02 04:33:39;;;;;;;1.02;0.80;;;16.70;99.90;;;;;;5049857;28;20079;-72
2022/09/02 04:36:09;;;;;;;1.63;0.77;;;16.70;99.90;;;;;;5033045;28;20032;-72
2022/09/02 04:38:36;;;;;;;1.30;0.80;;;16.60;99.90;;;;;;5018704;28;20073;-76
2022/09/02 04:41:13;;;;;;;3.58;1.20;;;16.60;99.90;;;;;;5049931;28;20682;-73
2022/09/02 04:43:40;;;;;;;12.43;1.48;;;16.40;99.90;;;;;;5038127;28;20119;-74
2022/09/02 04:46:10;;;;;;;3.05;0.80;;;16.40;99.90;;;;;;5034120;28;20077;-73
2022/09/02 04:48:37;;;;;;;2.45;1.25;;;16.40;99.90;;;;;;5030816;28;20041;-75
2022/09/02 04:51:09;;;;;;;1.52;0.80;;;16.20;99.90;;;;;;5029375;28;20500;-73
2022/09/02 04:53:36;;;;;;;0.50;0.50;;;16.10;99.90;;;;;;5030770;28;20370;-74
2022/09/02 04:56:08;;;;;;;1.60;0.85;;;16.10;99.90;;;;;;5029517;28;20104;-74
2022/09/02 04:58:35;;;;;;;1.63;0.90;;;15.90;99.90;;;;;;5029316;28;20493;-74
2022/09/02 05:01:09;;;;;;;0.80;0.70;;;16.00;99.90;;;;;;5029269;28;20037;-74
2022/09/02 05:03:36;;;;;;;1.88;1.35;;;16.10;99.90;;;;;;5029119;28;20504;-74
2022/09/02 05:06:08;;;;;;;27.20;1.75;;;16.10;99.90;;;;;;5030691;28;20120;-74
2022/09/02 05:08:35;;;;;;;0.77;0.73;;;16.00;99.90;;;;;;5030607;28;20026;-74
2022/09/02 05:11:05;;;;;;;1.83;1.00;;;16.10;99.90;;;;;;5030452;28;20432;-74
2022/09/02 05:13:31;;;;;;;0.57;0.50;;;16.10;99.90;;;;;;5040089;28;20052;-74
2022/09/02 05:15:57;;;;;;;3.05;1.52;;;16.10;99.90;;;;;;5035720;28;20764;-74
2022/09/02 05:18:23;;;;;;;1.83;1.15;;;16.10;99.90;;;;;;5030371;28;20501;-74
2022/09/02 05:20:48;;;;;;;1.52;0.85;;;16.00;99.90;;;;;;5030060;28;20764;-74
2022/09/02 05:23:14;;;;;;;1.65;1.20;;;16.00;99.90;;;;;;5027892;28;20120;-70
2022/09/02 05:25:40;;;;;;;1.80;0.90;;;16.10;99.90;;;;;;5031944;28;20025;-71
2022/09/02 05:28:10;;;;;;;1.50;0.85;;;16.20;99.90;;;;;;5029522;28;20030;-71
2022/09/02 05:30:38;;;;;;;12.20;1.35;;;16.20;99.90;;;;;;5012589;28;20026;-71
2022/09/02 05:33:05;;;;;;;2.95;1.27;;;16.20;99.90;;;;;;5029619;28;20025;-72
2022/09/02 05:35:32;;;;;;;1.85;1.25;;;16.20;99.90;;;;;;5012425;28;20033;-72
2022/09/02 05:37:58;;;;;;;1.25;0.80;;;16.20;99.90;;;;;;5029729;28;20064;-67
2022/09/02 05:40:25;;;;;;;1.33;0.70;;;16.20;99.90;;;;;;5028872;28;20033;-67
2022/09/02 05:42:51;;;;;;;10.30;1.20;;;16.20;99.90;;;;;;5029451;28;20031;-67
2022/09/02 05:45:17;;;;;;;1.55;1.02;;;16.20;99.90;;;;;;5011452;28;20755;-67
2022/09/02 05:47:43;;;;;;;2.05;1.17;;;16.30;99.90;;;;;;5029079;28;20022;-67
2022/09/02 05:50:09;;;;;;;1.88;0.98;;;16.40;99.90;;;;;;5031920;28;20044;-67
2022/09/02 05:52:35;;;;;;;4.97;0.90;;;16.50;99.90;;;;;;5029609;28;20034;-68
2022/09/02 05:55:02;;;;;;;1.20;0.80;;;16.50;99.90;;;;;;5039727;28;20040;-68
2022/09/02 05:57:28;;;;;;;2.25;1.15;;;16.60;99.90;;;;;;5039985;28;20017;-68
2022/09/02 05:59:55;;;;;;;1.10;0.88;;;16.60;99.90;;;;;;5028572;28;20035;-67
2022/09/02 06:02:24;;;;;;;1.55;0.75;;;16.70;99.90;;;;;;5038611;28;20056;-67
2022/09/02 06:04:52;;;;;;;1.20;0.82;;;16.70;99.90;;;;;;5028041;28;20036;-68
2022/09/02 06:07:22;;;;;;;1.25;1.15;;;16.80;99.90;;;;;;5012156;28;20017;-67
2022/09/02 06:09:48;;;;;;;2.75;1.83;;;16.90;99.90;;;;;;5037391;28;20025;-67
2022/09/02 06:12:17;;;;;;;5.97;1.50;;;16.90;99.90;;;;;;5042406;28;20033;-67
2022/09/02 06:14:43;;;;;;;1.20;1.00;;;17.00;99.90;;;;;;5007682;28;20025;-68
2022/09/02 06:17:09;;;;;;;3.08;1.17;;;17.00;99.90;;;;;;5035475;28;20033;-67
2022/09/02 06:19:35;;;;;;;5.75;3.58;;;17.10;99.90;;;;;;5038404;28;20505;-68
2022/09/02 06:22:02;;;;;;;2.45;1.45;;;17.10;99.90;;;;;;5039358;28;20045;-68
2022/09/02 06:24:29;;;;;;;1.73;1.30;;;17.10;99.90;;;;;;5039744;28;20033;-67
2022/09/02 06:26:56;;;;;;;2.80;1.67;;;17.20;99.90;;;;;;5046981;28;20033;-67
2022/09/02 06:29:24;;;;;;;1.38;0.90;;;17.30;99.90;;;;;;5018630;28;20025;-68
2022/09/02 06:31:50;;;;;;;2.40;1.08;;;17.40;99.90;;;;;;5033133;28;20108;-74
2022/09/02 06:34:19;;;;;;;1.20;0.98;;;17.50;99.90;;;;;;5014137;28;20108;-74
2022/09/02 06:36:47;;;;;;;17.10;1.20;;;17.50;99.90;;;;;;5018806;28;20163;-75
2022/09/02 06:39:18;;;;;;;3.10;1.02;;;17.60;99.90;;;;;;5021357;28;20485;-74
2022/09/02 06:41:46;;;;;;;1.10;0.88;;;17.70;99.90;;;;;;5047485;28;20034;-74
2022/09/02 06:44:14;;;;;;;3.92;1.00;;;17.80;99.90;;;;;;5030920;28;20079;-74
2022/09/02 06:46:47;;;;;;;2.80;1.05;;;17.80;99.90;;;;;;5032168;28;20037;-75
2022/09/02 06:49:15;;;;;;;0.73;0.47;;;17.90;99.90;;;;;;5014513;28;20075;-75
2022/09/02 06:51:47;;;;;;;1.60;0.75;;;18.00;99.90;;;;;;5036275;28;20029;-75
2022/09/02 06:54:16;;;;;;;0.22;0.22;;;18.10;99.90;;;;;;5035598;28;20025;-75
2022/09/02 06:56:44;;;;;;;0.93;0.50;;;18.20;99.90;;;;;;5032364;28;20089;-75
2022/09/02 06:59:10;;;;;;;1.20;0.73;;;18.30;99.90;;;;;;5035049;28;20109;-76
2022/09/02 07:01:36;;;;;;;1.13;0.52;;;18.40;99.90;;;;;;5041100;28;20099;-75
2022/09/02 07:06:51;;;;;;;3.40;1.60;;;18.50;99.90;;;;;;5046635;28;20025;-76
2022/09/02 07:09:22;;;;;;;1.77;0.80;;;18.60;99.90;;;;;;5030332;28;20473;-75
2022/09/02 07:11:49;;;;;;;1.35;0.85;;;18.70;99.90;;;;;;5036636;28;20029;-75
2022/09/02 07:14:18;;;;;;;2.47;1.15;;;18.80;99.90;;;;;;5038424;28;20086;-75
2022/09/02 07:16:51;;;;;;;4.28;1.10;;;18.90;99.90;;;;;;5048274;28;20044;-75
2022/09/02 07:19:20;;;;;;;0.30;0.30;;;19.20;99.50;;;;;;5018440;28;20057;-76
2022/09/02 07:21:48;;;;;;;1.70;0.68;;;19.30;98.50;;;;;;5047366;28;20025;-75
2022/09/02 07:24:15;;;;;;;1.67;1.08;;;19.40;98.60;;;;;;5035427;28;20036;-75
2022/09/02 07:26:41;;;;;;;2.25;1.05;;;19.50;98.40;;;;;;5042154;28;20029;-76
2022/09/02 07:29:10;;;;;;;1.02;0.57;;;19.60;97.40;;;;;;5041910;28;20533;-76
2022/09/02 07:31:38;;;;;;;1.13;0.68;;;19.70;97.40;;;;;;5048759;28;20037;-76
2022/09/02 07:34:06;;;;;;;1.63;1.00;;;19.70;96.80;;;;;;5033129;28;20041;-76
2022/09/02 07:36:36;;;;;;;0.80;0.60;;;19.80;97.00;;;;;;5016515;28;20036;-75
2022/09/02 07:39:07;;;;;;;3.90;1.00;;;19.90;96.60;;;;;;5037109;28;20393;-80
2022/09/02 07:41:33;;;;;;;0.95;0.57;;;19.90;96.90;;;;;;5047931;28;20029;-79
2022/09/02 07:43:59;;;;;;;0.47;0.38;;;19.90;96.90;;;;;;5031074;28;20049;-79
2022/09/02 07:46:28;;;;;;;1.27;0.80;;;20.00;96.50;;;;;;5033388;28;20124;-79
2022/09/02 07:48:53;;;;;;;0.52;0.40;;;20.00;96.10;;;;;;5013404;28;20461;-81
2022/09/02 07:51:19;;;;;;;0.90;0.60;;;20.10;96.10;;;;;;4997708;28;20044;-81
2022/09/02 07:53:45;;;;;;;2.03;0.90;;;20.10;96.00;;;;;;5013681;28;20021;-80
2022/09/02 07:56:13;;;;;;;2.55;0.65;;;20.20;96.30;;;;;;5031413;28;20021;-80
2022/09/02 07:58:44;;;;;;;0.80;0.43;;;20.20;96.20;;;;;;5029989;28;20048;-80
2022/09/02 08:01:11;;;;;;;0.70;0.50;;;20.20;95.70;;;;;;5014755;28;20534;-80
2022/09/02 08:03:39;;;;;;;5.68;0.55;;;20.20;95.70;;;;;;5029470;28;20103;-80
2022/09/02 08:06:07;;;;;;;0.45;0.40;;;20.30;95.70;;;;;;5029315;28;20025;-80
2022/09/02 08:08:33;;;;;;;0.90;0.50;;;20.40;95.80;;;;;;5032141;28;20104;-80
2022/09/02 08:10:59;;;;;;;1.55;0.80;;;20.50;95.90;;;;;;5030936;28;20113;-79
2022/09/02 08:13:26;;;;;;;2.22;0.98;;;20.60;95.90;;;;;;5030142;28;20045;-79
2022/09/02 08:15:52;;;;;;;3.15;1.02;;;20.70;95.60;;;;;;5030807;28;20028;-80
2022/09/02 08:18:18;;;;;;;0.90;0.50;;;20.80;95.60;;;;;;5026293;28;20033;-79
2022/09/02 08:20:44;;;;;;;0.98;0.50;;;20.90;95.00;;;;;;5012842;28;20401;-79
2022/09/02 08:23:11;;;;;;;1.20;0.60;;;20.90;95.20;;;;;;5012962;28;20037;-79
2022/09/02 08:25:38;;;;;;;0.45;0.40;;;21.00;94.60;;;;;;5011856;28;20082;-79
2022/09/02 08:28:07;;;;;;;1.42;0.80;;;21.00;94.80;;;;;;5037106;28;20496;-79
2022/09/02 08:30:33;;;;;;;1.23;0.50;;;21.00;94.30;;;;;;5017537;28;20378;-79
2022/09/02 08:33:01;;;;;;;0.50;0.50;;;21.10;94.60;;;;;;5029089;28;20099;-79
2022/09/02 08:35:26;;;;;;;1.63;0.65;;;21.30;94.40;;;;;;5030662;28;20025;-79
2022/09/02 08:37:52;;;;;;;1.33;0.88;;;21.30;93.80;;;;;;5038891;23;20056;-68
2022/09/02 08:40:25;;;;;;;1.20;0.88;;;21.30;93.80;;;;;;5045897;28;20500;-67
2022/09/02 08:42:55;;;;;;;4.50;1.15;;;21.30;94.20;;;;;;5018961;28;20030;-68
2022/09/02 08:45:42;;;;;;;0.32;0.30;;;21.50;93.90;;;;;;5030528;28;20119;-68
2022/09/02 08:48:53;;;;;;;5.00;1.00;;;21.50;93.20;;;;;;5027618;28;20025;-68
2022/09/02 08:51:31;;;;;;;4.30;0.70;;;21.60;93.10;;;;;;5031710;28;20037;-72
2022/09/02 08:54:06;;;;;;;0.90;0.68;;;21.70;92.70;;;;;;5049139;28;20025;-67
2022/09/02 08:56:32;;;;;;;3.65;0.40;;;21.60;92.40;;;;;;5032779;28;20017;-68
2022/09/02 08:59:02;;;;;;;0.60;0.47;;;21.80;92.60;;;;;;5031688;28;20179;-67
2022/09/02 09:01:51;;;;;;;0.52;0.40;;;22.00;92.10;;;;;;5045188;28;20040;-67
2022/09/02 09:04:48;;;;;;;2.22;0.50;;;22.10;91.80;;;;;;5027214;28;20037;-67
2022/09/02 09:07:44;;;;;;;1.52;0.70;;;22.10;91.50;;;;;;5048983;28;20041;-67
2022/09/02 09:10:32;;;;;;;1.83;0.80;;;22.00;91.50;;;;;;5019071;28;20094;-68
2022/09/02 09:13:42;;;;;;;0.52;0.32;;;22.20;91.00;;;;;;5015467;28;20025;-68
2022/09/02 09:16:49;;;;;;;0.93;0.60;;;22.10;90.90;;;;;;5027438;28;20086;-67
2022/09/02 09:19:28;;;;;;;2.53;0.35;;;22.40;90.80;;;;;;5044590;28;20033;-67
2022/09/02 09:21:59;;;;;;;0.80;0.50;;;22.70;90.30;;;;;;5050072;28;20517;-67
2022/09/02 09:24:47;;;;;;;1.27;0.88;;;22.70;89.40;;;;;;5047385;28;20056;-68
2022/09/02 09:27:21;;;;;;;1.40;0.52;;;23.00;87.40;;;;;;5049953;28;20061;-68
2022/09/02 09:29:48;;;;;;;0.95;0.30;;;23.20;86.30;;;;;;5049601;28;20025;-68
2022/09/02 09:32:32;;;;;;;4.95;0.57;;;23.30;86.60;;;;;;5031781;28;20032;-68
2022/09/02 09:35:07;;;;;;;0.43;0.32;;;23.50;83.80;;;;;;5032566;28;20424;-68
2022/09/02 09:37:46;;;;;;;0.60;0.32;;;23.50;82.10;;;;;;5046461;28;20060;-68
2022/09/02 09:40:21;;;;;;;2.08;0.38;;;23.80;82.80;;;;;;5047623;28;20036;-68
2022/09/02 09:42:59;;;;;;;0.32;0.30;;;23.80;81.50;;;;;;5045630;28;20033;-68
2022/09/02 09:45:27;;;;;;;4.63;0.57;;;24.00;81.40;;;;;;5029893;28;20038;-68
2022/09/02 09:48:15;;;;;;;1.58;0.82;;;23.80;79.60;;;;;;5049019;28;20029;-68
2022/09/02 09:50:42;;;;;;;0.43;0.43;;;23.90;81.70;;;;;;5053565;28;20037;-68
2022/09/02 09:53:20;;;;;;;0.90;0.40;;;24.10;81.60;;;;;;5035879;28;20049;-68
2022/09/02 09:55:56;;;;;;;1.15;0.50;;;24.30;81.50;;;;;;5033076;28;20155;-68
2022/09/02 09:58:38;;;;;;;0.80;0.52;;;24.30;79.10;;;;;;5051961;28;20020;-67
2022/09/02 10:01:22;;;;;;;0.30;0.30;;;24.20;77.60;;;;;;5035572;28;20029;-68
2022/09/02 10:04:00;;;;;;;1.90;0.50;;;24.30;77.40;;;;;;5044275;28;20543;-68
2022/09/02 10:06:32;;;;;;;2.80;0.77;;;24.10;76.70;;;;;;5026785;28;20041;-68
2022/09/02 10:09:21;;;;;;;0.30;0.20;;;24.40;78.10;;;;;;5046826;28;20042;-68
2022/09/02 10:12:07;;;;;;;1.42;0.73;;;24.80;77.20;;;;;;5036406;28;20044;-69
2022/09/02 10:14:43;;;;;;;0.22;0.22;;;24.80;77.30;;;;;;5033627;28;20029;-68
2022/09/02 10:17:14;;;;;;;0.50;0.28;;;24.30;76.90;;;;;;5045377;28;20060;-68
2022/09/02 10:20:18;;;;;;;0.68;0.40;;;24.20;77.80;;;;;;5052476;28;20036;-69
2022/09/02 10:23:11;;;;;;;0.30;0.30;;;24.60;77.10;;;;;;5052852;28;20519;-68
2022/09/02 10:25:58;;;;;;;0.68;0.22;;;24.90;76.10;;;;;;5036880;28;20025;-70
2022/09/02 10:29:13;;;;;;;0.47;0.28;;;25.20;75.30;;;;;;5032974;28;20501;-68
2022/09/02 10:32:06;;;;;;;1.40;0.90;;;25.10;74.10;;;;;;5030519;28;20559;-70
2022/09/02 10:34:41;;;;;;;4.07;0.73;;;24.60;74.30;;;;;;5070801;28;20028;-69
2022/09/02 10:37:22;;;;;;;0.70;0.43;;;25.00;74.50;;;;;;5072820;28;20077;-69
2022/09/02 10:40:13;;;;;;;0.20;0.20;;;25.30;73.10;;;;;;5055517;28;20098;-67
2022/09/02 10:43:01;;;;;;;0.80;0.28;;;25.20;72.40;;;;;;5034625;28;20214;-69
2022/09/02 10:45:45;;;;;;;0.40;0.30;;;25.30;72.80;;;;;;5052928;28;20040;-67
2022/09/02 10:48:13;;;;;;;0.40;0.30;;;25.30;71.70;;;;;;5035612;28;20516;-67
2022/09/02 10:50:52;;;;;;;0.85;0.50;;;25.70;71.80;;;;;;5051861;28;20033;-68
2022/09/02 10:53:58;;;;;;;0.40;0.40;;;25.50;69.80;;;;;;5034678;28;20025;-69
2022/09/02 10:56:58;;;;;;;0.52;0.38;;;25.30;70.30;;;;;;5052006;28;20036;-68
2022/09/02 10:59:47;;;;;;;0.52;0.40;;;25.70;70.80;;;;;;5035440;28;20037;-69
2022/09/02 11:02:29;;;;;;;1.55;0.68;;;26.00;70.10;;;;;;5035115;28;20033;-70
2022/09/02 11:05:22;;;;;;;2.25;0.60;;;25.80;68.60;;;;;;5034679;28;20033;-67
2022/09/02 11:08:17;;;;;;;0.73;0.40;;;25.60;68.50;;;;;;5051625;28;20493;-68
2022/09/02 11:11:02;;;;;;;0.30;0.20;;;25.60;68.70;;;;;;5051635;28;20047;-69
2022/09/02 11:13:55;;;;;;;1.88;0.82;;;25.70;67.60;;;;;;5034768;28;20060;-68
2022/09/02 11:16:41;;;;;;;0.20;0.20;;;25.30;67.10;;;;;;5035039;28;20025;-68
2022/09/02 11:19:21;;;;;;;0.40;0.40;;;25.60;67.70;;;;;;5031567;28;20047;-68
2022/09/02 11:22:23;;;;;;;0.93;0.45;;;25.90;67.60;;;;;;5034409;28;20496;-68
2022/09/02 11:25:08;;;;;;;2.05;0.82;;;25.90;66.50;;;;;;5051635;28;20098;-68
2022/09/02 11:28:01;;;;;;;2.00;0.70;;;26.00;67.50;;;;;;5033644;28;20090;-69
2022/09/02 11:30:52;;;;;;;2.17;0.75;;;26.10;66.60;;;;;;5048833;28;20396;-68
2022/09/02 11:33:30;;;;;;;;;;;25.80;65.10;;;;;;5032452;28;20031;-69
2022/09/02 11:35:58;;;;;;;1.92;0.35;;;25.70;65.20;;;;;;5029390;28;19909;-69
2022/09/02 11:38:38;;;;;;;0.43;0.30;;;25.90;66.30;;;;;;5034049;28;20095;-68
2022/09/02 11:41:19;;;;;;;1.10;0.40;;;26.30;65.20;;;;;;5050985;28;20056;-69
2022/09/02 11:44:29;;;;;;;0.73;0.40;;;26.50;65.70;;;;;;5034267;28;20098;-69
2022/09/02 11:47:07;;;;;;;1.55;0.43;;;26.40;64.70;;;;;;5036453;28;20108;-69
2022/09/02 11:50:25;;;;;;;0.20;0.20;;;26.50;65.10;;;;;;5050767;28;20039;-68
2022/09/02 11:53:00;;;;;;;3.38;0.60;;;26.60;64.20;;;;;;5050122;28;20052;-69
2022/09/02 11:55:46;;;;;;;2.20;0.60;;;26.60;65.20;;;;;;5051598;28;20040;-69
2022/09/02 11:58:40;;;;;;;0.30;0.30;;;26.60;65.40;;;;;;5050316;28;20029;-68
2022/09/02 12:01:37;;;;;;;1.55;0.57;;;26.70;64.50;;;;;;5030033;28;20047;-68
2022/09/02 12:04:25;;;;;;;1.00;0.50;;;27.00;64.70;;;;;;5050401;28;20032;-68
2022/09/02 12:07:06;;;;;;;1.98;0.50;;;26.90;64.30;;;;;;5049366;28;20509;-68
2022/09/02 12:09:46;;;;;;;2.33;0.73;;;27.10;64.00;;;;;;5049751;28;20036;-68
2022/09/02 12:12:37;;;;;;;1.90;0.68;;;27.10;63.70;;;;;;5042954;28;20033;-68
2022/09/02 12:15:06;;;;;;;1.15;0.45;;;27.30;63.20;;;;;;5040812;28;20083;-69
2022/09/02 12:17:43;;;;;;;0.40;0.37;;;27.60;63.30;;;;;;5050577;28;20114;-69
2022/09/02 12:20:37;;;;;;;0.47;0.30;;;27.60;63.10;;;;;;5050215;28;20040;-68
2022/09/02 12:23:05;;;;;;;2.08;0.80;;;27.80;62.80;;;;;;5050319;28;20477;-69
2022/09/02 12:25:37;;;;;;;0.73;0.50;;;27.40;63.20;;;;;;5033150;28;20025;-68
2022/09/02 12:28:22;;;;;;;16.17;0.57;;;27.80;63.70;;;;;;5033144;28;20028;-69
2022/09/02 12:30:54;;;;;;;0.30;0.20;;;27.80;63.30;;;;;;5049472;28;20029;-69
2022/09/02 12:33:40;;;;;;;0.47;0.32;;;27.80;62.00;;;;;;5048340;28;20033;-69
2022/09/02 12:36:07;;;;;;;0.73;0.60;;;28.10;62.90;;;;;;5032173;28;20028;-68
2022/09/02 12:38:40;;;;;;;0.77;0.45;;;28.30;62.50;;;;;;5034745;28;20059;-69
2022/09/02 12:41:08;;;;;;;2.50;0.40;;;28.20;61.10;;;;;;5050211;28;20524;-68
2022/09/02 12:44:03;;;;;;;0.55;0.30;;;28.00;60.80;;;;;;5049636;28;20036;-68
2022/09/02 12:46:35;;;;;;;1.63;0.63;;;28.30;61.60;;;;;;5033929;28;20485;-68
2022/09/02 12:49:28;;;;;;;0.73;0.45;;;28.40;61.30;;;;;;5049668;28;20037;-68
2022/09/02 12:52:02;;;;;;;3.50;0.82;;;28.60;60.70;;;;;;5030265;28;20123;-69
2022/09/02 12:54:37;;;;;;;2.47;0.82;;;28.50;59.70;;;;;;5032351;28;20029;-69
2022/09/02 12:57:05;;;;;;;1.15;0.60;;;27.90;60.20;;;;;;5046377;28;20480;-68
2022/09/02 12:59:39;;;;;;;2.65;1.08;;;28.50;60.30;;;;;;5049491;28;20056;-69
2022/09/02 13:02:39;;;;;;;1.08;0.47;;;28.40;59.70;;;;;;5030390;28;20029;-68
2022/09/02 13:05:37;;;;;;;0.60;0.38;;;28.20;59.30;;;;;;5047849;28;20025;-69
2022/09/02 13:08:40;;;;;;;0.90;0.30;;;28.40;59.70;;;;;;5032143;28;20033;-67
2022/09/02 13:11:42;;;;;;;0.93;0.47;;;28.30;58.30;;;;;;5037128;28;20559;-67
2022/09/02 13:14:27;;;;;;;0.68;0.40;;;28.50;58.90;;;;;;5036994;28;20549;-67
2022/09/02 13:17:12;;;;;;;0.25;0.10;;;29.00;58.20;;;;;;5049485;28;20041;-68
2022/09/02 13:20:18;;;;;;;4.07;0.22;;;29.30;59.30;;;;;;5046651;28;20092;-68
2022/09/02 13:23:14;;;;;;;1.65;0.60;;;29.70;58.00;;;;;;5046925;28;20175;-67
2022/09/02 13:26:09;;;;;;;0.68;0.38;;;29.60;57.20;;;;;;5041617;28;20029;-68